Time;durP1;ratioP1;P1;durP2;ratioP2;P2;SDS_P1;SDS_P2;PMS_P1;PMS_P2;Temp;Humidity;BMP_temperature;BMP_pressure;BME280_temperature;BME280_humidity;BME280_pressure;Samples;Min_cycle;Max_cycle;Signal;HPM_P1;HPM_P2
2024/01/23 00:00:54;;;;;;;42.70;38.55;;;;;;;-9.30;100.00;102632.38;4979902;28;20302;-60
2024/01/23 00:03:25;;;;;;;44.47;40.67;;;;;;;-9.63;100.00;102632.16;4977752;28;20428;-60
2024/01/23 00:05:51;;;;;;;43.08;39.67;;;;;;;-9.83;100.00;102634.25;4981788;28;20046;-60
2024/01/23 00:08:18;;;;;;;42.00;38.83;;;;;;;-9.85;100.00;102624.00;4979552;28;20555;-60
2024/01/23 00:10:45;;;;;;;44.20;40.17;;;;;;;-9.78;100.00;102630.72;4978574;28;20057;-60
2024/01/23 00:13:12;;;;;;;43.72;40.33;;;;;;;-9.91;100.00;102622.38;4970514;28;20075;-60
2024/01/23 00:15:40;;;;;;;42.97;39.65;;;;;;;-9.86;100.00;102616.28;4984097;28;20128;-60
2024/01/23 00:18:07;;;;;;;38.22;35.22;;;;;;;-9.90;100.00;102623.22;4978995;28;20641;-61
2024/01/23 00:20:34;;;;;;;40.42;37.40;;;;;;;-9.72;100.00;102625.44;4982661;28;20050;-62
2024/01/23 00:23:01;;;;;;;42.53;38.97;;;;;;;-9.72;100.00;102620.31;4986976;28;20075;-60
2024/01/23 00:25:28;;;;;;;44.08;40.88;;;;;;;-9.61;100.00;102624.41;4979844;28;20139;-60
2024/01/23 00:27:55;;;;;;;43.92;40.33;;;;;;;-9.69;100.00;102620.25;4975271;28;20065;-60
2024/01/23 00:30:24;;;;;;;44.65;41.35;;;;;;;-9.69;100.00;102615.09;4973044;28;20050;-61
2024/01/23 00:32:55;;;;;;;40.88;37.78;;;;;;;-9.73;100.00;102612.63;4979436;28;20061;-59
2024/01/23 00:35:22;;;;;;;38.65;35.72;;;;;;;-9.49;100.00;102614.72;4982000;28;20061;-61
2024/01/23 00:37:49;;;;;;;43.70;40.28;;;;;;;-9.46;100.00;102609.53;4983759;28;20495;-60
2024/01/23 00:40:16;;;;;;;41.95;38.55;;;;;;;-9.51;100.00;102607.91;4985427;28;20062;-62
2024/01/23 00:42:43;;;;;;;36.67;33.17;;;;;;;-9.32;100.00;102604.09;4983773;28;20543;-60
2024/01/23 00:45:10;;;;;;;36.38;33.28;;;;;;;-9.38;100.00;102606.78;4979454;28;20046;-60
2024/01/23 00:47:37;;;;;;;32.60;29.90;;;;;;;-9.19;100.00;102596.97;4991948;28;20061;-60
2024/01/23 00:50:06;;;;;;;32.95;30.25;;;;;;;-9.15;100.00;102595.16;4980049;28;20054;-61
2024/01/23 00:52:33;;;;;;;38.42;34.40;;;;;;;-9.25;100.00;102604.81;4977160;28;20054;-61
2024/01/23 00:55:03;;;;;;;35.50;32.60;;;;;;;-9.08;100.00;102605.28;4987624;28;20046;-61
2024/01/23 00:57:30;;;;;;;34.75;32.05;;;;;;;-9.13;100.00;102596.00;4975193;28;20086;-61
2024/01/23 00:59:57;;;;;;;40.33;36.70;;;;;;;-9.25;100.00;102600.50;4983697;28;20046;-60
2024/01/23 01:02:24;;;;;;;38.95;36.05;;;;;;;-9.15;100.00;102602.88;4986622;28;20054;-60
2024/01/23 01:04:51;;;;;;;43.85;40.47;;;;;;;-9.19;100.00;102601.28;4982622;28;20062;-60
2024/01/23 01:07:19;;;;;;;35.80;33.00;;;;;;;-9.16;100.00;102594.31;4976572;28;20524;-60
2024/01/23 01:09:46;;;;;;;34.08;31.48;;;;;;;-9.31;100.00;102599.81;4978354;28;20515;-61
2024/01/23 01:12:14;;;;;;;36.05;33.35;;;;;;;-9.40;100.00;102593.13;4981869;28;20055;-62
2024/01/23 01:14:41;;;;;;;37.90;35.00;;;;;;;-9.33;100.00;102594.66;4985305;28;20061;-62
2024/01/23 01:17:08;;;;;;;37.80;34.22;;;;;;;-9.39;100.00;102584.50;4996480;28;20050;-60
2024/01/23 01:19:35;;;;;;;36.35;32.72;;;;;;;-9.28;100.00;102579.16;4982068;28;20050;-60
2024/01/23 01:22:02;;;;;;;37.63;34.60;;;;;;;-9.48;100.00;102572.66;4979116;28;20060;-60
2024/01/23 01:24:31;;;;;;;41.30;36.70;;;;;;;-9.29;100.00;102570.59;4975825;28;20050;-60
2024/01/23 01:26:58;;;;;;;44.70;39.55;;;;;;;-9.50;100.00;102574.44;4987461;28;20447;-62
2024/01/23 01:29:24;;;;;;;50.08;43.38;;;;;;;-9.28;100.00;102569.69;4981564;28;20065;-60
2024/01/23 01:31:52;;;;;;;44.03;39.63;;;;;;;-9.14;100.00;102560.81;4983464;28;20051;-60
2024/01/23 01:34:20;;;;;;;41.58;38.17;;;;;;;-9.22;100.00;102558.41;4977811;28;20141;-60
2024/01/23 01:36:47;;;;;;;43.55;39.78;;;;;;;-9.29;100.00;102559.41;4979567;28;20047;-60
2024/01/23 01:39:14;;;;;;;57.25;47.70;;;;;;;-9.26;100.00;102556.78;4976630;28;20058;-60
2024/01/23 01:41:42;;;;;;;52.10;45.55;;;;;;;-9.29;100.00;102542.28;4980989;28;20543;-60
2024/01/23 01:44:09;;;;;;;44.80;41.13;;;;;;;-9.32;100.00;102541.47;4990893;28;20479;-60
2024/01/23 01:46:38;;;;;;;52.28;47.10;;;;;;;-9.39;100.00;102542.50;4984766;28;20065;-62
2024/01/23 01:49:05;;;;;;;57.67;51.72;;;;;;;-9.25;100.00;102538.72;4985330;28;20149;-62
2024/01/23 01:51:32;;;;;;;51.38;47.13;;;;;;;-9.23;100.00;102528.38;4982031;28;20508;-62
2024/01/23 01:54:00;;;;;;;42.20;38.80;;;;;;;-9.20;100.00;102525.75;4981223;28;20081;-61
2024/01/23 01:56:28;;;;;;;50.70;46.58;;;;;;;-9.12;100.00;102530.75;4982759;28;20404;-62
2024/01/23 01:58:58;;;;;;;52.92;48.30;;;;;;;-9.32;100.00;102537.19;4985118;28;20050;-60
2024/01/23 02:01:27;;;;;;;48.38;44.38;;;;;;;-9.00;100.00;102533.03;4973887;28;20051;-60
2024/01/23 02:03:53;;;;;;;42.30;38.75;;;;;;;-9.22;100.00;102533.53;4976124;28;20536;-60
2024/01/23 02:06:21;;;;;;;39.83;35.80;;;;;;;-8.94;100.00;102525.16;4986090;28;20058;-60
2024/01/23 02:08:49;;;;;;;42.20;38.65;;;;;;;-8.73;100.00;102528.09;4976413;28;20053;-60
2024/01/23 02:11:16;;;;;;;43.88;40.17;;;;;;;-8.83;100.00;102523.19;4978470;28;20054;-60
2024/01/23 02:13:43;;;;;;;43.05;38.67;;;;;;;-8.86;100.00;102525.84;4975237;28;20054;-60
2024/01/23 02:16:12;;;;;;;45.15;41.22;;;;;;;-8.81;100.00;102526.53;4981828;28;20069;-62
2024/01/23 02:18:39;;;;;;;48.80;44.45;;;;;;;-8.85;100.00;102529.25;4979021;28;20054;-62
2024/01/23 02:21:06;;;;;;;42.95;39.45;;;;;;;-8.93;100.00;102523.44;4989194;28;20054;-62
2024/01/23 02:23:34;;;;;;;43.03;39.38;;;;;;;-9.28;100.00;102514.78;4977942;28;20051;-62
2024/01/23 02:26:01;;;;;;;57.05;52.65;;;;;;;-8.91;100.00;102513.94;4981097;28;20068;-62
2024/01/23 02:28:28;;;;;;;52.90;48.60;;;;;;;-9.30;100.00;102512.25;4984737;28;20061;-62
2024/01/23 02:30:55;;;;;;;59.47;54.28;;;;;;;-8.95;100.00;102507.19;4981897;28;20057;-62
2024/01/23 02:33:22;;;;;;;69.85;64.30;;;;;;;-8.71;100.00;102505.72;4983482;28;20053;-62
2024/01/23 02:35:49;;;;;;;67.88;62.28;;;;;;;-8.95;100.00;102507.19;4979052;28;20069;-62
2024/01/23 02:38:16;;;;;;;71.07;65.35;;;;;;;-9.19;100.00;102506.03;4979183;28;20067;-60
2024/01/23 02:40:44;;;;;;;65.63;60.13;;;;;;;-9.08;100.00;102504.88;4987168;28;20435;-60
2024/01/23 02:43:11;;;;;;;64.03;58.63;;;;;;;-9.07;100.00;102501.44;4985233;28;20085;-60
2024/01/23 02:45:37;;;;;;;79.15;72.53;;;;;;;-8.77;100.00;102517.88;4974886;28;20058;-59
2024/01/23 02:48:05;;;;;;;73.95;68.25;;;;;;;-8.68;100.00;102513.38;4986039;28;20062;-60
2024/01/23 02:50:32;;;;;;;80.78;74.68;;;;;;;-8.67;100.00;102503.03;4972569;28;20055;-60
2024/01/23 02:52:59;;;;;;;71.65;65.95;;;;;;;-8.81;100.00;102499.94;4980935;28;20504;-60
2024/01/23 02:55:25;;;;;;;58.10;53.00;;;;;;;-8.94;100.00;102493.41;4981429;28;20055;-60
2024/01/23 02:57:54;;;;;;;69.93;64.53;;;;;;;-8.48;100.00;102490.53;4976606;28;20059;-60
2024/01/23 03:00:21;;;;;;;52.97;48.47;;;;;;;-8.48;100.00;102492.25;4983754;28;20590;-62
2024/01/23 03:02:49;;;;;;;85.38;78.47;;;;;;;-8.46;100.00;102485.34;4972184;28;20054;-62
2024/01/23 03:05:16;;;;;;;60.78;55.88;;;;;;;-8.77;100.00;102481.81;4983074;28;20505;-62
2024/01/23 03:07:42;;;;;;;64.32;59.22;;;;;;;-8.98;100.00;102477.19;4974664;28;20382;-62
2024/01/23 03:10:10;;;;;;;61.70;55.75;;;;;;;-8.38;100.00;102479.06;4981732;28;20046;-62
2024/01/23 03:12:37;;;;;;;66.80;61.42;;;;;;;-8.90;100.00;102475.25;4983800;28;20057;-60
2024/01/23 03:15:07;;;;;;;65.85;60.75;;;;;;;-8.70;100.00;102469.63;4975770;28;20046;-60
2024/01/23 03:17:34;;;;;;;55.58;50.97;;;;;;;-8.73;100.00;102467.13;4979856;28;20054;-60
2024/01/23 03:20:01;;;;;;;63.10;58.30;;;;;;;-8.99;100.00;102458.28;4973829;28;20424;-60
2024/01/23 03:22:27;;;;;;;67.05;61.42;;;;;;;-9.31;100.00;102450.53;4983965;28;20317;-60
2024/01/23 03:24:54;;;;;;;70.57;65.18;;;;;;;-9.31;100.00;102451.38;4984619;28;20101;-60
2024/01/23 03:27:22;;;;;;;59.60;54.40;;;;;;;-9.10;100.00;102452.59;4979649;28;20629;-60
2024/01/23 03:29:52;;;;;;;58.10;53.20;;;;;;;-9.17;100.00;102443.28;4977088;28;20042;-62
2024/01/23 03:32:20;;;;;;;66.22;60.83;;;;;;;-8.99;100.00;102436.84;4981785;28;20409;-62
2024/01/23 03:34:48;;;;;;;59.63;54.55;;;;;;;-8.70;100.00;102436.13;4984468;28;20522;-60
2024/01/23 03:37:16;;;;;;;57.67;52.83;;;;;;;-9.44;100.00;102424.22;4983928;28;20054;-60
2024/01/23 03:39:43;;;;;;;58.13;53.33;;;;;;;-8.86;100.00;102412.50;4980126;28;20500;-60
2024/01/23 03:42:10;;;;;;;56.95;51.95;;;;;;;-9.16;100.00;102416.69;4981029;28;20059;-60
2024/01/23 03:44:37;;;;;;;54.88;49.80;;;;;;;-9.29;100.00;102420.44;4982362;28;20050;-60
2024/01/23 03:47:04;;;;;;;51.83;47.33;;;;;;;-8.82;100.00;102410.69;4979122;28;20054;-62
2024/01/23 03:49:32;;;;;;;51.28;46.88;;;;;;;-9.11;100.00;102414.81;4985016;28;20388;-62
2024/01/23 03:51:59;;;;;;;50.42;46.20;;;;;;;-8.95;100.00;102404.19;4981403;28;20523;-60
2024/01/23 03:54:26;;;;;;;60.03;54.90;;;;;;;-8.87;100.00;102407.38;4986889;28;20069;-60
2024/01/23 03:56:53;;;;;;;55.22;50.72;;;;;;;-8.89;100.00;102402.28;4984296;28;20058;-60
2024/01/23 03:59:20;;;;;;;53.22;48.30;;;;;;;-8.85;100.00;102398.72;4981284;28;20054;-60
2024/01/23 04:01:47;;;;;;;50.17;45.80;;;;;;;-8.93;100.00;102404.97;4973331;28;20051;-60
2024/01/23 04:04:13;;;;;;;47.40;43.33;;;;;;;-8.88;100.00;102411.69;4977913;28;20077;-60
2024/01/23 04:06:42;;;;;;;46.42;42.50;;;;;;;-9.08;100.00;102403.63;4989525;28;20054;-60
2024/01/23 04:09:09;;;;;;;49.47;45.28;;;;;;;-9.46;100.00;102410.56;4992184;28;20486;-60
2024/01/23 04:11:36;;;;;;;50.47;46.08;;;;;;;-9.30;100.00;102409.28;4981892;28;20062;-60
2024/01/23 04:14:02;;;;;;;49.35;45.05;;;;;;;-8.97;100.00;102413.66;4985188;28;20511;-62
2024/01/23 04:16:29;;;;;;;51.67;47.38;;;;;;;-8.92;100.00;102415.25;4977943;28;20073;-62
2024/01/23 04:18:56;;;;;;;50.90;46.50;;;;;;;-8.95;100.00;102407.59;4987101;28;20589;-62
2024/01/23 04:21:24;;;;;;;49.55;45.22;;;;;;;-9.14;100.00;102407.19;4987816;28;20515;-62
2024/01/23 04:23:52;;;;;;;48.20;43.90;;;;;;;-9.08;100.00;102401.88;4974769;28;20058;-62
2024/01/23 04:26:19;;;;;;;53.60;48.92;;;;;;;-8.70;100.00;102396.66;4991274;28;20058;-62
2024/01/23 04:28:48;;;;;;;50.42;46.17;;;;;;;-9.19;100.00;102385.88;4982227;28;20050;-62
2024/01/23 04:31:15;;;;;;;48.80;44.70;;;;;;;-8.70;100.00;102379.44;4988920;28;20057;-60
2024/01/23 04:33:42;;;;;;;45.90;41.90;;;;;;;-8.62;100.00;102386.94;4982121;28;20069;-60
2024/01/23 04:36:09;;;;;;;56.20;51.30;;;;;;;-8.78;100.00;102378.81;4992306;28;20074;-62
2024/01/23 04:38:37;;;;;;;54.90;50.50;;;;;;;-8.77;100.00;102383.09;4980698;28;20054;-62
2024/01/23 04:41:05;;;;;;;53.83;49.85;;;;;;;-8.77;100.00;102365.91;4986818;28;20046;-62
2024/01/23 04:43:33;;;;;;;54.25;50.45;;;;;;;-8.74;100.00;102371.84;4965067;28;20054;-62
2024/01/23 04:46:00;;;;;;;55.10;50.70;;;;;;;-8.83;100.00;102370.38;4988087;28;20054;-60
2024/01/23 04:48:27;;;;;;;56.03;51.45;;;;;;;-8.72;100.00;102368.34;4992447;28;20054;-61
2024/01/23 04:50:54;;;;;;;61.13;56.28;;;;;;;-8.77;100.00;102365.91;4983824;28;20047;-60
2024/01/23 04:53:21;;;;;;;55.65;51.17;;;;;;;-8.85;100.00;102364.41;4990059;28;20050;-60
2024/01/23 04:55:48;;;;;;;50.88;46.58;;;;;;;-8.81;100.00;102368.59;4960854;28;20578;-60
2024/01/23 04:58:16;;;;;;;54.38;49.97;;;;;;;-8.89;100.00;102367.97;4997713;28;20076;-60
2024/01/23 05:00:43;;;;;;;53.15;48.95;;;;;;;-8.75;100.00;102368.41;4984296;28;20503;-60
2024/01/23 05:03:10;;;;;;;52.10;47.95;;;;;;;-8.74;100.00;102358.94;4981334;28;20090;-60
2024/01/23 05:05:37;;;;;;;44.80;40.78;;;;;;;-9.20;100.00;102360.16;4985546;28;20053;-62
2024/01/23 05:08:05;;;;;;;47.97;43.97;;;;;;;-8.72;100.00;102359.75;4984108;28;20444;-62
2024/01/23 05:10:32;;;;;;;54.97;50.58;;;;;;;-8.89;100.00;102339.63;4985929;28;20042;-62
2024/01/23 05:13:01;;;;;;;49.72;45.92;;;;;;;-8.82;100.00;102336.84;4981280;28;20061;-62
2024/01/23 05:15:30;;;;;;;58.95;54.42;;;;;;;-143.39;100.00;64013.03;4980412;28;20448;-62
2024/01/23 05:17:56;;;;;;;58.35;54.05;;;;;;;-143.39;100.00;64013.03;4980383;28;20436;-62
2024/01/23 05:20:23;;;;;;;48.28;44.13;;;;;;;-143.39;100.00;64013.03;4985577;28;20057;-62
2024/01/23 05:22:50;;;;;;;53.10;48.35;;;;;;;-143.39;100.00;64013.03;4982985;28;20065;-62
2024/01/23 05:25:17;;;;;;;45.08;41.08;;;;;;;-143.39;100.00;64013.03;4981904;28;20057;-62
2024/01/23 05:27:44;;;;;;;45.33;40.95;;;;;;;-143.39;100.00;64013.03;4975311;28;20054;-62
2024/01/23 05:30:12;;;;;;;54.85;50.38;;;;;;;-143.39;100.00;64013.03;4971123;28;20143;-62
2024/01/23 05:32:40;;;;;;;54.58;49.88;;;;;;;-8.50;100.00;102322.22;4978999;28;20062;-61
2024/01/23 05:35:08;;;;;;;58.67;53.40;;;;;;;-8.92;100.00;102319.94;4980662;28;20058;-62
2024/01/23 05:37:35;;;;;;;46.47;42.88;;;;;;;-8.75;100.00;102332.34;4978374;28;20050;-61
2024/01/23 05:40:02;;;;;;;46.55;42.80;;;;;;;-8.72;100.00;102321.13;4977610;28;20431;-62
2024/01/23 05:42:29;;;;;;;41.60;38.20;;;;;;;-8.73;100.00;102330.59;4976448;28;20046;-62
2024/01/23 05:44:56;;;;;;;40.95;37.65;;;;;;;-8.84;100.00;102333.44;4971222;28;20057;-62
2024/01/23 05:47:23;;;;;;;40.42;37.03;;;;;;;-8.89;100.00;102326.75;4980772;28;20066;-62
2024/01/23 05:49:52;;;;;;;43.20;39.58;;;;;;;-9.00;100.00;102322.72;4981962;28;21236;-60
2024/01/23 05:52:18;;;;;;;56.78;51.97;;;;;;;-143.39;100.00;64013.03;4970856;28;21206;-60
2024/01/23 05:54:45;;;;;;;55.05;49.22;;;;;;;-143.39;100.00;64013.03;4973290;28;20129;-60
2024/01/23 05:57:12;;;;;;;52.60;48.40;;;;;;;-143.39;100.00;64013.03;4978040;28;20475;-60
2024/01/23 05:59:40;;;;;;;45.13;41.38;;;;;;;-143.39;100.00;64013.03;4979458;28;20054;-60
2024/01/23 06:02:07;;;;;;;42.63;39.22;;;;;;;-143.39;100.00;64013.03;4977925;28;20436;-59
2024/01/23 06:04:34;;;;;;;41.97;38.67;;;;;;;-143.39;100.00;64013.03;4976380;28;20338;-60
2024/01/23 06:07:06;;;;;;;41.85;38.55;;;;;;;-143.39;100.00;64013.03;4975438;28;20054;-60
2024/01/23 06:09:33;;;;;;;49.45;45.65;;;;;;;-143.39;100.00;64013.03;4975621;28;20333;-61
2024/01/23 06:11:59;;;;;;;45.58;42.08;;;;;;;-143.39;100.00;64013.03;4978677;28;20455;-60
2024/01/23 06:14:26;;;;;;;42.05;38.65;;;;;;;-143.39;100.00;64013.03;4978364;28;20069;-60
2024/01/23 06:16:53;;;;;;;46.05;42.22;;;;;;;-143.39;100.00;64013.03;4978889;28;20539;-60
2024/01/23 06:19:20;;;;;;;41.05;37.75;;;;;;;-143.39;100.00;64013.03;4976866;28;20085;-60
2024/01/23 06:21:47;;;;;;;45.08;41.47;;;;;;;-143.39;100.00;64013.03;4970642;28;20050;-60
2024/01/23 06:24:15;;;;;;;46.53;42.67;;;;;;;-143.39;100.00;64013.03;4980242;28;20065;-60
2024/01/23 06:26:44;;;;;;;42.92;39.40;;;;;;;-143.39;100.00;64013.03;4974444;28;20464;-60
2024/01/23 06:29:11;;;;;;;44.58;40.90;;;;;;;-143.39;100.00;64013.03;4977826;28;20538;-60
2024/01/23 06:31:38;;;;;;;43.25;39.75;;;;;;;-143.39;100.00;64013.03;4979456;28;20610;-61
2024/01/23 06:34:06;;;;;;;40.88;37.47;;;;;;;-143.39;100.00;64013.03;4979100;28;20062;-60
2024/01/23 06:36:33;;;;;;;39.05;35.63;;;;;;;-143.39;100.00;64013.03;4975272;28;20094;-60
2024/01/23 06:39:00;;;;;;;40.38;37.08;;;;;;;-143.39;100.00;64013.03;4982946;28;20061;-60
2024/01/23 06:41:28;;;;;;;46.78;43.17;;;;;;;-143.39;100.00;64013.03;4980433;28;20642;-60
2024/01/23 06:43:55;;;;;;;48.88;45.08;;;;;;;-143.39;100.00;64013.03;4973900;28;20063;-60
2024/01/23 06:46:22;;;;;;;49.72;45.92;;;;;;;-143.39;100.00;64013.03;4971759;28;20516;-62
2024/01/23 06:48:48;;;;;;;50.38;46.58;;;;;;;-143.39;100.00;64013.03;4981654;28;20058;-62
2024/01/23 06:51:16;;;;;;;45.25;41.75;;;;;;;-143.39;100.00;64013.03;4981925;28;20046;-61
2024/01/23 06:53:43;;;;;;;43.20;40.00;;;;;;;-143.39;100.00;64013.03;4973707;28;20579;-61
2024/01/23 06:56:10;;;;;;;42.25;38.85;;;;;;;-143.39;100.00;64013.03;4981557;28;20054;-61
2024/01/23 06:58:38;;;;;;;45.22;41.42;;;;;;;-143.39;100.00;64013.03;4973636;28;20058;-59
2024/01/23 07:01:05;;;;;;;43.30;39.70;;;;;;;-143.39;100.00;64013.03;4979708;28;20543;-60
2024/01/23 07:03:31;;;;;;;47.55;43.75;;;;;;;-143.39;100.00;64013.03;4972978;28;20054;-59
2024/01/23 07:05:58;;;;;;;51.65;47.53;;;;;;;-143.39;100.00;64013.03;4979652;28;20062;-60
2024/01/23 07:08:25;;;;;;;43.38;39.78;;;;;;;-143.39;100.00;64013.03;4974437;28;20082;-59
2024/01/23 07:10:52;;;;;;;45.28;41.58;;;;;;;-143.39;100.00;64013.03;4982579;28;20051;-59
2024/01/23 07:13:19;;;;;;;45.33;41.35;;;;;;;-143.39;100.00;64013.03;4980282;28;20137;-59
2024/01/23 07:15:47;;;;;;;46.08;42.28;;;;;;;-143.39;100.00;64013.03;4985546;28;20057;-59
2024/01/23 07:18:14;;;;;;;45.97;42.08;;;;;;;-143.39;100.00;64013.03;4973025;28;20050;-59
2024/01/23 07:20:41;;;;;;;44.33;40.45;;;;;;;-143.39;100.00;64013.03;4984157;28;20324;-60
2024/01/23 07:23:08;;;;;;;53.20;48.85;;;;;;;-143.39;100.00;64013.03;4973832;28;20057;-60
2024/01/23 07:25:34;;;;;;;51.95;47.53;;;;;;;-143.39;100.00;64013.03;4984378;28;20056;-60
2024/01/23 07:28:01;;;;;;;47.60;43.65;;;;;;;-143.39;100.00;64013.03;4982717;28;20054;-60
2024/01/23 07:30:28;;;;;;;47.03;43.17;;;;;;;-143.39;100.00;64013.03;4980032;28;20081;-59
2024/01/23 07:32:56;;;;;;;48.92;44.92;;;;;;;-143.39;100.00;64013.03;4977769;28;20064;-59
2024/01/23 07:35:23;;;;;;;52.40;48.15;;;;;;;-143.39;100.00;64013.03;4978507;28;20065;-59
2024/01/23 07:37:51;;;;;;;60.97;56.28;;;;;;;-143.39;100.00;64013.03;4983857;28;20460;-59
2024/01/23 07:40:18;;;;;;;57.45;52.97;;;;;;;-143.39;100.00;64013.03;4971867;28;20058;-60
2024/01/23 07:42:45;;;;;;;49.00;45.00;;;;;;;-143.39;100.00;64013.03;4980805;28;20141;-61
2024/01/23 07:45:12;;;;;;;51.63;47.47;;;;;;;-143.39;100.00;64013.03;4983668;28;20051;-61
2024/01/23 07:47:39;;;;;;;44.90;41.03;;;;;;;-143.39;100.00;64013.03;4979008;28;20090;-61
2024/01/23 07:50:08;;;;;;;48.58;44.58;;;;;;;-143.39;100.00;64013.03;4979811;28;20046;-61
2024/01/23 07:52:35;;;;;;;47.03;43.03;;;;;;;-143.39;100.00;64013.03;4980740;28;20447;-61
2024/01/23 07:55:02;;;;;;;42.60;38.80;;;;;;;-143.39;100.00;64013.03;4985753;28;20054;-61
2024/01/23 07:57:29;;;;;;;45.47;41.42;;;;;;;-143.39;100.00;64013.03;4978816;28;20059;-61
2024/01/23 07:59:57;;;;;;;49.30;45.10;;;;;;;-143.39;100.00;64013.03;4986860;28;20801;-61
2024/01/23 08:02:25;;;;;;;54.33;49.63;;;;;;;-143.39;100.00;64013.03;4983792;28;20053;-61
2024/01/23 08:04:52;;;;;;;55.20;50.72;;;;;;;-143.39;100.00;64013.03;4979415;28;20512;-61
2024/01/23 08:07:20;;;;;;;54.38;49.78;;;;;;;-143.39;100.00;64013.03;4987118;28;20054;-61
2024/01/23 08:09:47;;;;;;;50.45;46.45;;;;;;;-143.39;100.00;64013.03;4983103;28;20058;-61
2024/01/23 08:12:14;;;;;;;50.53;46.58;;;;;;;-143.39;100.00;64013.03;4986852;28;20056;-61
2024/01/23 08:14:41;;;;;;;56.75;52.45;;;;;;;-143.39;100.00;64013.03;4982734;28;20047;-61
2024/01/23 08:17:08;;;;;;;69.15;64.25;;;;;;;-143.39;100.00;64013.03;4980671;28;20058;-61
2024/01/23 08:19:37;;;;;;;63.15;58.45;;;;;;;-143.39;100.00;64013.03;4976761;28;20059;-61
2024/01/23 08:22:04;;;;;;;61.28;56.58;;;;;;;-143.39;100.00;64013.03;4976441;28;20133;-61
2024/01/23 08:24:32;;;;;;;53.00;48.60;;;;;;;-143.39;100.00;64013.03;4973668;28;20054;-62
2024/01/23 08:26:59;;;;;;;51.30;47.20;;;;;;;-143.39;100.00;64013.03;4979484;28;20063;-61
2024/01/23 08:29:26;;;;;;;62.28;57.58;;;;;;;-143.39;100.00;64013.03;4979513;28;20058;-61
2024/01/23 08:31:53;;;;;;;60.35;55.75;;;;;;;-143.39;100.00;64013.03;4983188;28;20527;-61
2024/01/23 08:34:19;;;;;;;60.42;55.92;;;;;;;-143.39;100.00;64013.03;4982185;28;20504;-60
2024/01/23 08:36:46;;;;;;;59.85;55.22;;;;;;;-143.39;100.00;64013.03;4984231;28;20530;-60
2024/01/23 08:39:13;;;;;;;63.22;58.40;;;;;;;-143.39;100.00;64013.03;4980448;28;20648;-61
2024/01/23 08:41:41;;;;;;;63.60;58.75;;;;;;;-143.39;100.00;64013.03;4977636;28;20317;-59
2024/01/23 08:44:08;;;;;;;60.42;55.92;;;;;;;-143.39;100.00;64013.03;4986178;28;20057;-60
2024/01/23 08:46:35;;;;;;;57.60;53.20;;;;;;;-143.39;100.00;64013.03;4976612;28;20508;-61
2024/01/23 08:49:03;;;;;;;66.80;61.80;;;;;;;-143.39;100.00;64013.03;4978560;28;20054;-60
2024/01/23 08:51:30;;;;;;;58.15;53.65;;;;;;;-143.39;100.00;64013.03;4982727;28;20617;-60
2024/01/23 08:53:57;;;;;;;56.88;52.38;;;;;;;-143.39;100.00;64013.03;4976728;28;20061;-61
2024/01/23 08:56:24;;;;;;;75.03;69.55;;;;;;;-143.39;100.00;64013.03;4977791;28;20060;-60
2024/01/23 08:58:52;;;;;;;67.22;62.42;;;;;;;-143.39;100.00;64013.03;4976266;28;20070;-59
2024/01/23 09:01:20;;;;;;;65.40;60.65;;;;;;;-143.39;100.00;64013.03;4979713;28;20055;-61
2024/01/23 09:03:46;;;;;;;57.83;53.40;;;;;;;-143.39;100.00;64013.03;4977081;28;20054;-59
2024/01/23 09:06:13;;;;;;;55.58;51.08;;;;;;;-143.39;100.00;64013.03;4985946;28;20054;-61
2024/01/23 09:08:41;;;;;;;64.55;59.60;;;;;;;-143.39;100.00;64013.03;4983719;28;20058;-60
2024/01/23 09:11:08;;;;;;;64.78;59.88;;;;;;;-143.39;100.00;64013.03;4983562;28;20623;-61
2024/01/23 09:13:35;;;;;;;66.70;61.80;;;;;;;-143.39;100.00;64013.03;4980321;28;20058;-61
2024/01/23 09:16:04;;;;;;;59.90;55.22;;;;;;;-143.39;100.00;64013.03;4980244;28;20050;-60
2024/01/23 09:18:31;;;;;;;64.50;59.40;;;;;;;-143.39;100.00;64013.03;4978120;28;20054;-59
2024/01/23 09:21:02;;;;;;;53.90;49.50;;;;;;;-143.39;100.00;64013.03;4975235;28;20054;-60
2024/01/23 09:23:29;;;;;;;57.83;53.23;;;;;;;-143.39;100.00;64013.03;4978791;28;20062;-59
2024/01/23 09:25:56;;;;;;;64.05;59.03;;;;;;;-143.39;100.00;64013.03;4977890;28;20305;-60
2024/01/23 09:28:23;;;;;;;57.20;52.47;;;;;;;-143.39;100.00;64013.03;4978047;28;20511;-61
2024/01/23 09:30:50;;;;;;;56.78;52.13;;;;;;;-143.39;100.00;64013.03;4982092;28;20054;-60
2024/01/23 09:33:19;;;;;;;53.45;49.05;;;;;;;-143.39;100.00;64013.03;4982191;28;20038;-60
2024/01/23 09:35:45;;;;;;;51.70;47.40;;;;;;;-143.39;100.00;64013.03;4984047;28;20551;-61
2024/01/23 09:38:15;;;;;;;57.92;53.30;;;;;;;-143.39;100.00;64013.03;4976485;28;20054;-59
2024/01/23 09:40:42;;;;;;;68.82;63.60;;;;;;;-143.39;100.00;64013.03;4978173;28;20054;-61
2024/01/23 09:43:12;;;;;;;72.22;66.57;;;;;;;-143.39;100.00;64013.03;4984848;28;20062;-62
2024/01/23 09:45:40;;;;;;;65.03;59.92;;;;;;;-143.39;100.00;64013.03;4981497;28;20062;-61
2024/01/23 09:48:08;;;;;;;63.72;58.63;;;;;;;-143.39;100.00;64013.03;4979953;28;20525;-61
2024/01/23 09:50:41;;;;;;;70.00;64.30;;;;;;;-143.39;100.00;64013.03;4977495;28;20495;-61
2024/01/23 09:53:08;;;;;;;71.35;65.75;;;;;;;-143.39;100.00;64013.03;4978242;28;20042;-61
2024/01/23 09:55:35;;;;;;;79.00;73.20;;;;;;;-143.39;100.00;64013.03;4984234;28;20050;-61
2024/01/23 09:58:04;;;;;;;71.80;66.30;;;;;;;-143.39;100.00;64013.03;4981479;28;20149;-61
2024/01/23 10:00:31;;;;;;;65.63;60.53;;;;;;;-143.39;100.00;64013.03;4968582;28;20082;-60
2024/01/23 10:02:58;;;;;;;68.22;62.92;;;;;;;-143.39;100.00;64013.03;4972024;28;20053;-60
2024/01/23 10:05:25;;;;;;;61.13;56.15;;;;;;;-143.39;100.00;64013.03;4977573;28;20054;-60
2024/01/23 10:07:54;;;;;;;57.65;53.05;;;;;;;-143.39;100.00;64013.03;4980897;28;20058;-61
2024/01/23 10:10:20;;;;;;;66.25;61.15;;;;;;;-143.39;100.00;64013.03;4975768;28;20058;-59
2024/01/23 10:12:48;;;;;;;66.30;61.25;;;;;;;-143.39;100.00;64013.03;4982031;28;20046;-60
2024/01/23 10:15:18;;;;;;;61.50;56.65;;;;;;;-143.39;100.00;64013.03;4976909;28;20556;-59
2024/01/23 10:17:45;;;;;;;58.13;53.28;;;;;;;-143.39;100.00;64013.03;4974538;28;20120;-59
2024/01/23 10:20:15;;;;;;;61.95;57.08;;;;;;;-143.39;100.00;64013.03;4981160;28;20536;-61
2024/01/23 10:22:44;;;;;;;71.35;66.05;;;;;;;-143.39;100.00;64013.03;4961617;28;20063;-59
2024/01/23 10:25:19;;;;;;;64.03;58.92;;;;;;;-143.39;100.00;64013.03;4975366;28;20433;-61
2024/01/23 10:27:45;;;;;;;62.30;57.33;;;;;;;-143.39;100.00;64013.03;4975209;28;20054;-59
2024/01/23 10:30:13;;;;;;;61.85;56.75;;;;;;;-143.39;100.00;64013.03;4979943;28;20608;-59
2024/01/23 10:32:42;;;;;;;64.70;59.47;;;;;;;-143.39;100.00;64013.03;4977884;28;20543;-60
2024/01/23 10:35:12;;;;;;;66.25;60.72;;;;;;;-143.39;100.00;64013.03;4975885;28;20047;-61
2024/01/23 10:37:40;;;;;;;61.50;56.60;;;;;;;-143.39;100.00;64013.03;4979732;28;20057;-60
2024/01/23 10:40:10;;;;;;;62.20;57.20;;;;;;;-143.39;100.00;64013.03;4982980;28;20086;-59
2024/01/23 10:42:40;;;;;;;60.70;55.90;;;;;;;-143.39;100.00;64013.03;4981671;28;20063;-59
2024/01/23 10:45:10;;;;;;;60.00;55.30;;;;;;;-143.39;100.00;64013.03;4978187;28;20055;-61
2024/01/23 10:47:38;;;;;;;57.00;52.38;;;;;;;-143.39;100.00;64013.03;4979240;28;20054;-61
2024/01/23 10:50:06;;;;;;;72.88;67.03;;;;;;;-143.39;100.00;64013.03;4979838;28;20058;-59
2024/01/23 10:52:39;;;;;;;67.50;62.10;;;;;;;-143.39;100.00;64013.03;4981026;28;20054;-61
2024/01/23 10:55:07;;;;;;;61.85;56.85;;;;;;;-143.39;100.00;64013.03;4984068;28;20089;-60
2024/01/23 10:57:37;;;;;;;59.20;54.45;;;;;;;-143.39;100.00;64013.03;4979574;28;20062;-60